Time;durP1;ratioP1;P1;durP2;ratioP2;P2;SDS_P1;SDS_P2;PMS_P1;PMS_P2;Temp;Humidity;BMP_temperature;BMP_pressure;BME280_temperature;BME280_humidity;BME280_pressure;Samples;Min_cycle;Max_cycle;Signal;HPM_P1;HPM_P2
2023/07/05 00:01:30;;;;;;;2.20;1.95;;;21.20;58.70;;;;;;4806395;29;20674;-84
2023/07/05 00:03:56;;;;;;;1.85;1.65;;;21.20;58.70;;;;;;4805394;29;20193;-83
2023/07/05 00:06:22;;;;;;;2.28;2.08;;;21.20;58.70;;;;;;4790209;29;20238;-83
2023/07/05 00:08:48;;;;;;;2.13;1.80;;;21.20;58.70;;;;;;4805115;29;20544;-82
2023/07/05 00:11:14;;;;;;;1.67;1.58;;;21.20;58.60;;;;;;4805053;29;20181;-82
2023/07/05 00:13:40;;;;;;;2.15;1.95;;;21.20;58.60;;;;;;4806228;29;20163;-82
2023/07/05 00:16:06;;;;;;;2.00;1.80;;;21.20;58.60;;;;;;4805220;29;20186;-83
2023/07/05 00:18:32;;;;;;;1.67;1.58;;;21.20;58.70;;;;;;4806197;29;20194;-83
2023/07/05 00:21:01;;;;;;;1.70;1.60;;;21.10;58.60;;;;;;4806141;29;20599;-83
2023/07/05 00:23:28;;;;;;;1.83;1.73;;;21.20;58.70;;;;;;4787031;30;20235;-83
2023/07/05 00:25:54;;;;;;;2.03;1.88;;;21.20;58.70;;;;;;4802496;29;20163;-82
2023/07/05 00:28:20;;;;;;;2.08;1.80;;;21.20;58.70;;;;;;4801993;29;20194;-81
2023/07/05 00:30:46;;;;;;;2.30;2.10;;;21.20;58.70;;;;;;4786790;30;20183;-84
2023/07/05 00:33:12;;;;;;;1.90;1.80;;;21.20;58.60;;;;;;4787275;30;20175;-83
2023/07/05 00:35:47;;;;;;;2.03;1.83;;;21.30;58.70;;;;;;4787373;30;20271;-84
2023/07/05 00:38:13;;;;;;;2.17;2.00;;;21.20;58.60;;;;;;4786882;30;20666;-84
2023/07/05 00:40:39;;;;;;;2.08;1.88;;;21.20;58.60;;;;;;4786935;30;20179;-83
2023/07/05 00:43:05;;;;;;;2.00;1.80;;;21.20;58.70;;;;;;4801868;29;20624;-83
2023/07/05 00:45:56;;;;;;;1.92;1.80;;;21.20;59.30;;;;;;4786729;30;20182;-82
2023/07/05 00:48:38;;;;;;;1.70;1.60;;;21.20;58.70;;;;;;4801684;29;20168;-83
2023/07/05 00:51:13;;;;;;;1.80;1.70;;;21.20;58.70;;;;;;4786699;30;20180;-81
2023/07/05 00:53:39;;;;;;;1.77;1.67;;;21.20;58.70;;;;;;4801928;29;20221;-83
2023/07/05 00:56:16;;;;;;;2.00;1.80;;;21.20;58.60;;;;;;4786705;30;20180;-83
2023/07/05 00:58:42;;;;;;;1.80;1.70;;;21.10;58.60;;;;;;4802111;29;20174;-85
2023/07/05 01:01:08;;;;;;;2.03;1.83;;;21.30;58.70;;;;;;4791486;30;20156;-83
2023/07/05 01:03:34;;;;;;;2.08;1.85;;;21.20;58.60;;;;;;4805509;29;20493;-83
2023/07/05 01:06:00;;;;;;;1.80;1.70;;;21.20;58.70;;;;;;4790001;30;20636;-83
2023/07/05 01:08:26;;;;;;;1.90;1.80;;;21.20;58.60;;;;;;4790701;30;20274;-84
2023/07/05 01:10:59;;;;;;;1.90;1.70;;;21.20;58.60;;;;;;4791195;30;20177;-83
2023/07/05 01:13:32;;;;;;;2.17;2.00;;;21.20;58.60;;;;;;4805376;29;20640;-83
2023/07/05 01:16:10;;;;;;;1.92;1.83;;;21.20;58.60;;;;;;4805048;29;20168;-84
2023/07/05 01:18:44;;;;;;;2.00;1.83;;;21.20;58.60;;;;;;4791211;29;20182;-84
2023/07/05 01:21:18;;;;;;;2.30;2.10;;;21.20;58.60;;;;;;4789869;30;20202;-82
2023/07/05 01:24:03;;;;;;;1.80;1.70;;;21.20;58.70;;;;;;4807743;29;20642;-83
2023/07/05 01:26:47;;;;;;;2.58;2.22;;;21.20;58.60;;;;;;4808083;29;20244;-82
2023/07/05 01:29:47;;;;;;;1.85;1.70;;;21.20;58.60;;;;;;4807548;29;20206;-82
2023/07/05 01:32:31;;;;;;;2.10;1.90;;;21.20;58.70;;;;;;4807801;29;20263;-82
2023/07/05 01:35:16;;;;;;;1.65;1.55;;;21.20;58.70;;;;;;4792488;29;20257;-83
2023/07/05 01:37:43;;;;;;;2.13;1.90;;;21.20;58.70;;;;;;4807878;29;20163;-83
2023/07/05 01:40:48;;;;;;;1.88;1.70;;;21.20;58.70;;;;;;4792489;29;20171;-82
2023/07/05 01:43:15;;;;;;;1.95;1.80;;;21.20;58.70;;;;;;4792640;29;20209;-82
2023/07/05 01:45:59;;;;;;;1.63;1.52;;;21.20;58.70;;;;;;4808600;29;20167;-84
2023/07/05 01:48:53;;;;;;;2.05;1.83;;;21.30;58.70;;;;;;4808553;29;20170;-83
2023/07/05 01:51:34;;;;;;;2.30;1.90;;;21.30;58.70;;;;;;4792271;29;20174;-82
2023/07/05 01:54:06;;;;;;;1.75;1.65;;;21.20;58.70;;;;;;4807555;29;20192;-81
2023/07/05 01:56:39;;;;;;;2.05;1.85;;;21.20;58.80;;;;;;4792484;29;20181;-82
2023/07/05 01:59:05;;;;;;;1.77;1.65;;;21.20;58.70;;;;;;4807376;29;20167;-83
2023/07/05 02:01:31;;;;;;;1.80;1.70;;;21.20;58.70;;;;;;4792069;29;20175;-81
2023/07/05 02:03:57;;;;;;;1.95;1.75;;;21.20;58.70;;;;;;4807725;29;20179;-82
2023/07/05 02:06:23;;;;;;;2.13;1.90;;;21.20;58.80;;;;;;4792035;29;20182;-84
2023/07/05 02:08:52;;;;;;;2.10;1.90;;;21.20;59.40;;;;;;4807092;29;20201;-84
2023/07/05 02:11:18;;;;;;;1.92;1.83;;;21.20;58.80;;;;;;4790916;29;20178;-83
2023/07/05 02:13:45;;;;;;;2.50;2.03;;;21.20;58.80;;;;;;4808226;29;20167;-83
2023/07/05 02:16:11;;;;;;;1.88;1.70;;;21.20;58.80;;;;;;4806870;29;20182;-83
2023/07/05 02:18:37;;;;;;;1.80;1.70;;;21.20;58.80;;;;;;4808404;29;20234;-82
2023/07/05 02:21:07;;;;;;;1.70;1.60;;;21.20;58.80;;;;;;4808448;29;20700;-83
2023/07/05 02:23:33;;;;;;;2.00;1.80;;;21.20;58.90;;;;;;4807915;29;20253;-82
2023/07/05 02:26:04;;;;;;;1.95;1.80;;;21.20;58.80;;;;;;4807932;29;20628;-83
2023/07/05 02:28:31;;;;;;;1.92;1.70;;;21.10;58.80;;;;;;4806812;29;20159;-84
2023/07/05 02:30:57;;;;;;;1.75;1.60;;;21.20;58.80;;;;;;4791599;29;20268;-82
2023/07/05 02:33:23;;;;;;;2.40;1.80;;;21.20;58.80;;;;;;4806966;29;20525;-82
2023/07/05 02:35:49;;;;;;;2.20;2.00;;;21.20;58.80;;;;;;4791609;29;20627;-83
2023/07/05 02:38:15;;;;;;;2.03;1.85;;;21.20;58.90;;;;;;4807791;29;20180;-82
2023/07/05 02:40:47;;;;;;;1.95;1.80;;;21.20;58.90;;;;;;4791803;29;20175;-83
2023/07/05 02:43:13;;;;;;;1.77;1.67;;;21.20;58.90;;;;;;4807052;29;20175;-82
2023/07/05 02:45:39;;;;;;;2.22;1.70;;;21.20;58.90;;;;;;4806643;29;20167;-84
2023/07/05 02:48:06;;;;;;;1.98;1.80;;;21.20;58.90;;;;;;4806500;29;20627;-82
2023/07/05 02:50:32;;;;;;;1.80;1.70;;;21.20;58.90;;;;;;4807663;29;20214;-84
2023/07/05 02:52:58;;;;;;;1.88;1.77;;;21.20;58.90;;;;;;4791569;29;20595;-84
2023/07/05 02:55:24;;;;;;;1.90;1.75;;;21.10;58.90;;;;;;4807517;29;20688;-84
2023/07/05 02:57:50;;;;;;;1.65;1.48;;;21.20;58.90;;;;;;4806262;29;20241;-82
2023/07/05 03:00:16;;;;;;;2.03;1.80;;;21.10;58.90;;;;;;4791315;29;20179;-83
2023/07/05 03:02:42;;;;;;;2.00;1.83;;;21.20;58.80;;;;;;4806471;29;20167;-82
2023/07/05 03:05:09;;;;;;;2.30;2.10;;;21.10;58.80;;;;;;4791565;29;20179;-83
2023/07/05 03:07:35;;;;;;;1.70;1.60;;;21.10;58.90;;;;;;4807281;29;20156;-83
2023/07/05 03:10:01;;;;;;;2.08;1.88;;;21.10;58.90;;;;;;4806041;29;20186;-84
2023/07/05 03:12:27;;;;;;;1.90;1.75;;;21.20;58.90;;;;;;4790967;29;20175;-83
2023/07/05 03:14:53;;;;;;;1.80;1.70;;;21.20;58.90;;;;;;4805998;29;20223;-83
2023/07/05 03:17:19;;;;;;;1.73;1.63;;;21.10;58.90;;;;;;4806995;29;20196;-85
2023/07/05 03:19:45;;;;;;;1.90;1.80;;;21.10;58.90;;;;;;4805896;29;20198;-84
2023/07/05 03:22:10;;;;;;;2.05;1.88;;;21.20;58.90;;;;;;4805428;29;20254;-84
2023/07/05 03:24:36;;;;;;;2.00;1.80;;;21.20;58.90;;;;;;4805878;29;20171;-84
2023/07/05 03:27:02;;;;;;;2.13;1.92;;;21.20;59.00;;;;;;4806923;29;20209;-85
2023/07/05 03:29:28;;;;;;;1.90;1.75;;;21.20;58.90;;;;;;4790588;29;20267;-82
2023/07/05 03:31:54;;;;;;;1.83;1.73;;;21.20;58.90;;;;;;4806819;29;20577;-83
2023/07/05 03:34:20;;;;;;;1.90;1.70;;;21.20;59.00;;;;;;4805782;29;20193;-84
2023/07/05 03:36:46;;;;;;;1.95;1.80;;;21.10;58.90;;;;;;4805522;29;20171;-82
2023/07/05 03:39:14;;;;;;;2.13;1.92;;;21.20;59.00;;;;;;4806952;29;20174;-83
2023/07/05 03:41:40;;;;;;;2.03;1.83;;;21.20;58.90;;;;;;4806725;29;20177;-83
2023/07/05 03:44:06;;;;;;;1.88;1.77;;;21.20;59.00;;;;;;4790344;29;20178;-84
2023/07/05 03:46:32;;;;;;;1.95;1.75;;;21.20;59.00;;;;;;4806518;29;20242;-84
2023/07/05 03:48:58;;;;;;;1.90;1.80;;;21.20;59.00;;;;;;4806515;29;20190;-83
2023/07/05 03:51:25;;;;;;;1.83;1.73;;;21.20;58.90;;;;;;4805638;29;20175;-84
2023/07/05 03:53:52;;;;;;;1.90;1.70;;;21.20;58.90;;;;;;4790568;29;20212;-82
2023/07/05 03:56:18;;;;;;;1.95;1.77;;;21.20;59.00;;;;;;4805343;29;20163;-84
2023/07/05 03:58:44;;;;;;;2.45;1.75;;;21.20;59.00;;;;;;4790305;29;20190;-83
2023/07/05 04:01:14;;;;;;;1.83;1.70;;;21.10;59.00;;;;;;4805393;29;20163;-85
2023/07/05 04:03:41;;;;;;;1.60;1.50;;;21.20;59.00;;;;;;4805248;29;20163;-83
2023/07/05 04:06:07;;;;;;;2.03;1.55;;;21.10;59.00;;;;;;4805163;29;20216;-83
2023/07/05 04:08:33;;;;;;;1.70;1.60;;;21.20;59.00;;;;;;4790334;29;20179;-83
2023/07/05 04:10:59;;;;;;;1.58;1.48;;;21.20;59.10;;;;;;4805158;29;20171;-83
2023/07/05 04:13:25;;;;;;;1.90;1.80;;;21.20;59.10;;;;;;4790529;29;20222;-85
2023/07/05 04:16:00;;;;;;;1.90;1.73;;;21.20;59.10;;;;;;4806281;29;20185;-82
2023/07/05 04:18:27;;;;;;;1.75;1.65;;;21.10;59.00;;;;;;4790052;29;20549;-84
2023/07/05 04:20:53;;;;;;;1.90;1.70;;;21.20;59.10;;;;;;4789972;29;20545;-83
2023/07/05 04:23:19;;;;;;;2.20;2.00;;;21.20;59.10;;;;;;4805993;29;20226;-84
2023/07/05 04:25:45;;;;;;;1.70;1.60;;;21.20;59.10;;;;;;4805028;29;20386;-83
2023/07/05 04:28:11;;;;;;;1.92;1.83;;;21.20;59.10;;;;;;4805001;29;20653;-83
2023/07/05 04:30:37;;;;;;;2.03;1.77;;;21.20;59.10;;;;;;4804889;29;20194;-81
2023/07/05 04:33:03;;;;;;;1.85;1.75;;;21.20;59.20;;;;;;4805028;29;20545;-82
2023/07/05 04:35:29;;;;;;;1.98;1.80;;;21.20;59.10;;;;;;4809067;29;20228;-81
2023/07/05 04:37:55;;;;;;;2.13;1.92;;;21.20;59.20;;;;;;4809843;29;20162;-83
2023/07/05 04:40:21;;;;;;;1.73;1.63;;;21.20;59.10;;;;;;4810064;29;20167;-83
2023/07/05 04:42:47;;;;;;;2.60;2.08;;;21.20;59.10;;;;;;4808515;29;20167;-84
2023/07/05 04:45:13;;;;;;;2.03;1.83;;;21.20;59.10;;;;;;4808533;29;20185;-84
2023/07/05 04:47:39;;;;;;;2.00;1.80;;;21.20;59.10;;;;;;4808501;29;20170;-82
2023/07/05 04:50:05;;;;;;;2.10;1.90;;;21.20;59.10;;;;;;4793257;29;20206;-82
2023/07/05 04:52:31;;;;;;;2.00;1.83;;;21.20;59.10;;;;;;4808490;29;20170;-83
2023/07/05 04:54:57;;;;;;;2.28;2.00;;;21.20;59.20;;;;;;4808316;29;20167;-82
2023/07/05 04:57:23;;;;;;;2.10;1.90;;;21.10;59.20;;;;;;4809414;29;20688;-82
2023/07/05 04:59:51;;;;;;;1.75;1.65;;;21.20;59.20;;;;;;4809472;29;20167;-83
2023/07/05 05:02:18;;;;;;;1.98;1.70;;;21.20;59.20;;;;;;4808254;29;20246;-82
2023/07/05 05:04:44;;;;;;;1.80;1.67;;;21.10;59.10;;;;;;4793759;29;20182;-83
2023/07/05 05:07:10;;;;;;;1.65;1.55;;;21.20;59.20;;;;;;4808335;29;20175;-84
2023/07/05 05:09:36;;;;;;;1.92;1.70;;;21.20;59.20;;;;;;4809144;29;20221;-84
2023/07/05 05:12:02;;;;;;;1.75;1.63;;;21.20;59.80;;;;;;4809433;29;20238;-82
2023/07/05 05:14:28;;;;;;;1.70;1.60;;;21.20;59.20;;;;;;4809176;29;20504;-83
2023/07/05 05:16:54;;;;;;;2.08;1.90;;;21.20;59.20;;;;;;4808098;29;20293;-82
2023/07/05 05:19:20;;;;;;;2.15;1.90;;;21.20;59.20;;;;;;4809111;29;20178;-82
2023/07/05 05:21:46;;;;;;;2.58;2.10;;;21.20;59.20;;;;;;4807901;29;20190;-84
2023/07/05 05:24:12;;;;;;;1.70;1.60;;;21.20;59.20;;;;;;4808845;29;20238;-82
2023/07/05 05:26:37;;;;;;;1.77;1.67;;;21.20;59.10;;;;;;4792783;29;20631;-84
2023/07/05 05:29:03;;;;;;;1.92;1.83;;;21.20;59.10;;;;;;4808851;29;20203;-84
2023/07/05 05:31:30;;;;;;;2.08;1.88;;;21.20;59.10;;;;;;4808877;29;20634;-83
2023/07/05 05:33:56;;;;;;;1.95;1.77;;;21.30;59.20;;;;;;4807655;29;20178;-82
2023/07/05 05:36:23;;;;;;;2.00;1.80;;;21.20;59.00;;;;;;4807656;29;20196;-83
2023/07/05 05:38:49;;;;;;;2.17;1.70;;;21.20;59.20;;;;;;4809042;29;20167;-83
2023/07/05 05:41:15;;;;;;;2.10;1.90;;;21.20;59.40;;;;;;4808634;29;20175;-84
2023/07/05 05:43:43;;;;;;;1.90;1.80;;;21.20;60.20;;;;;;4808968;29;20653;-84
2023/07/05 05:46:09;;;;;;;1.67;1.50;;;21.20;60.70;;;;;;4807367;29;20196;-83
2023/07/05 05:48:35;;;;;;;2.08;1.85;;;21.20;60.90;;;;;;4808565;29;20202;-84
2023/07/05 05:51:01;;;;;;;2.08;1.88;;;21.20;61.40;;;;;;4792659;29;20261;-83
2023/07/05 05:53:28;;;;;;;2.13;1.90;;;21.10;61.50;;;;;;4808634;29;20246;-83
2023/07/05 05:55:56;;;;;;;1.90;1.80;;;21.10;62.00;;;;;;4807580;29;20167;-84
2023/07/05 05:58:22;;;;;;;1.92;1.73;;;21.00;62.00;;;;;;4807309;29;20243;-84
2023/07/05 06:00:48;;;;;;;2.30;2.00;;;21.00;62.40;;;;;;4808622;29;20668;-83
2023/07/05 06:03:14;;;;;;;1.98;1.77;;;21.00;62.30;;;;;;4808314;29;20750;-85
2023/07/05 06:05:42;;;;;;;2.00;1.90;;;21.00;62.50;;;;;;4792266;29;20271;-84
2023/07/05 06:08:08;;;;;;;1.83;1.65;;;20.90;62.50;;;;;;4808230;29;20159;-83
2023/07/05 06:10:34;;;;;;;1.95;1.80;;;20.90;62.80;;;;;;4807049;29;20226;-83
2023/07/05 06:13:00;;;;;;;2.15;1.95;;;20.90;62.90;;;;;;4807336;29;20166;-83
2023/07/05 06:15:26;;;;;;;2.03;1.90;;;20.90;63.10;;;;;;4792120;29;20235;-83
2023/07/05 06:17:53;;;;;;;1.80;1.70;;;20.90;63.20;;;;;;4792370;29;20178;-84
2023/07/05 06:20:19;;;;;;;2.17;1.98;;;20.90;63.20;;;;;;4791872;29;20259;-85
2023/07/05 06:22:44;;;;;;;2.10;1.90;;;20.90;63.30;;;;;;4791587;29;20602;-86
2023/07/05 06:25:10;;;;;;;2.20;2.00;;;20.80;63.30;;;;;;4806841;29;20175;-84
2023/07/05 06:27:36;;;;;;;2.45;2.08;;;20.80;63.40;;;;;;4806777;29;20242;-85
2023/07/05 06:30:03;;;;;;;2.13;1.92;;;20.80;63.50;;;;;;4792037;29;20600;-86
2023/07/05 06:32:29;;;;;;;2.00;1.85;;;20.80;63.50;;;;;;4792116;29;20623;-85
2023/07/05 06:34:55;;;;;;;2.33;1.90;;;20.90;63.70;;;;;;4807810;29;20178;-86
2023/07/05 06:37:21;;;;;;;2.40;2.13;;;20.80;63.70;;;;;;4807802;29;20167;-85
2023/07/05 06:39:47;;;;;;;1.83;1.73;;;20.80;63.70;;;;;;4809416;29;20173;-85
2023/07/05 06:42:16;;;;;;;2.20;2.00;;;20.80;64.00;;;;;;4809963;29;20246;-85
2023/07/05 06:44:42;;;;;;;2.15;1.95;;;20.80;64.00;;;;;;4810880;29;20166;-86
2023/07/05 06:47:11;;;;;;;2.00;1.80;;;20.70;64.00;;;;;;4794759;29;20273;-87
2023/07/05 06:49:37;;;;;;;2.05;1.85;;;20.80;64.30;;;;;;4793855;29;20206;-86
2023/07/05 06:52:06;;;;;;;2.38;2.17;;;20.80;64.40;;;;;;4809426;29;20166;-86
2023/07/05 06:54:32;;;;;;;2.20;2.00;;;20.80;64.30;;;;;;4807786;29;20179;-86
2023/07/05 06:57:05;;;;;;;2.33;2.10;;;20.80;64.50;;;;;;4807114;29;20689;-87
2023/07/05 06:59:32;;;;;;;2.10;1.90;;;20.80;64.60;;;;;;4809122;29;20187;-86
2023/07/05 07:01:58;;;;;;;2.08;1.90;;;20.80;64.60;;;;;;4808776;29;20662;-86
2023/07/05 07:04:31;;;;;;;3.15;2.00;;;20.80;64.60;;;;;;4808889;29;20170;-86
2023/07/05 07:06:57;;;;;;;2.20;1.90;;;20.80;64.70;;;;;;4809284;29;20163;-87
2023/07/05 07:09:30;;;;;;;2.38;1.77;;;20.70;64.70;;;;;;4807007;29;20198;-86
2023/07/05 07:11:57;;;;;;;2.20;2.00;;;20.80;64.90;;;;;;4806662;29;20163;-86
2023/07/05 07:14:25;;;;;;;1.90;1.80;;;20.80;64.90;;;;;;4792067;29;20179;-86
2023/07/05 07:16:52;;;;;;;2.13;1.92;;;20.80;64.80;;;;;;4791581;29;20178;-87
2023/07/05 07:19:18;;;;;;;2.00;1.80;;;20.80;64.80;;;;;;4791976;29;20174;-86
2023/07/05 07:21:54;;;;;;;;;;;;;;;;;;;;;
2023/07/05 07:24:21;;;;;;;2.00;1.90;;;20.80;64.80;;;;;;4788905;29;20209;-87
2023/07/05 07:26:56;;;;;;;2.00;1.80;;;20.90;64.90;;;;;;4774538;30;20244;-87
2023/07/05 07:29:22;;;;;;;2.30;2.10;;;20.90;64.90;;;;;;4789335;29;20234;-87
2023/07/05 07:31:55;;;;;;;2.78;2.10;;;20.90;64.80;;;;;;4788576;30;20642;-87
2023/07/05 07:34:21;;;;;;;2.05;1.85;;;20.90;65.60;;;;;;4788669;30;20244;-86
2023/07/05 07:36:56;;;;;;;2.88;2.00;;;20.90;64.90;;;;;;4789721;30;20160;-87
2023/07/05 07:39:22;;;;;;;2.40;2.10;;;20.90;65.50;;;;;;4773160;30;20209;-87
2023/07/05 07:41:48;;;;;;;2.35;2.15;;;20.90;65.20;;;;;;4788019;30;20628;-85
2023/07/05 07:44:14;;;;;;;2.45;2.13;;;20.80;64.90;;;;;;4787867;30;20635;-86
2023/07/05 07:46:40;;;;;;;2.25;1.98;;;20.90;64.90;;;;;;4772557;30;20183;-86
2023/07/05 07:49:07;;;;;;;2.20;2.00;;;20.80;65.00;;;;;;4772368;30;20283;-86
2023/07/05 07:51:37;;;;;;;2.28;2.08;;;20.90;64.80;;;;;;4772436;30;20179;-85
2023/07/05 07:54:04;;;;;;;2.30;2.10;;;20.80;64.70;;;;;;4772333;30;20662;-86
2023/07/05 07:56:30;;;;;;;2.25;1.88;;;20.80;64.60;;;;;;4787984;30;20167;-88
2023/07/05 07:59:04;;;;;;;3.05;1.88;;;20.80;64.60;;;;;;4788512;30;20636;-87
2023/07/05 08:01:32;;;;;;;2.20;2.00;;;20.80;64.60;;;;;;4774298;30;20211;-86
2023/07/05 08:04:03;;;;;;;2.10;1.90;;;20.90;64.60;;;;;;4773858;30;20258;-88
2023/07/05 08:06:30;;;;;;;2.30;1.98;;;20.90;64.70;;;;;;4772103;30;20187;-86
2023/07/05 08:08:56;;;;;;;2.35;2.05;;;20.80;64.60;;;;;;4786223;30;20706;-84
2023/07/05 08:11:22;;;;;;;2.28;2.08;;;20.80;64.70;;;;;;4787236;30;20155;-85
2023/07/05 08:13:49;;;;;;;2.35;2.15;;;20.80;64.70;;;;;;4787155;30;20164;-85
2023/07/05 08:16:15;;;;;;;2.08;1.88;;;20.80;64.70;;;;;;4772309;30;20266;-86
2023/07/05 08:18:41;;;;;;;2.33;1.77;;;20.90;64.70;;;;;;4787079;30;20198;-84
2023/07/05 08:21:07;;;;;;;2.40;2.00;;;20.90;64.70;;;;;;4772308;30;20581;-86
2023/07/05 08:23:32;;;;;;;2.00;1.80;;;20.80;64.60;;;;;;4784999;29;20314;-84
2023/07/05 08:26:00;;;;;;;2.47;1.95;;;20.90;64.60;;;;;;4805491;29;20568;-85
2023/07/05 08:28:26;;;;;;;2.40;2.20;;;20.80;64.60;;;;;;4806058;29;20169;-84
2023/07/05 08:30:53;;;;;;;2.13;1.95;;;20.90;64.70;;;;;;4804983;29;20191;-86
2023/07/05 08:33:21;;;;;;;2.20;2.00;;;20.90;64.70;;;;;;4789971;29;20258;-85
2023/07/05 08:35:48;;;;;;;2.20;2.00;;;20.80;64.70;;;;;;4804890;29;20165;-85
2023/07/05 08:38:18;;;;;;;2.58;2.08;;;20.80;64.80;;;;;;4805110;29;20155;-84
2023/07/05 08:40:45;;;;;;;2.33;2.10;;;20.90;64.80;;;;;;4804944;29;20620;-85
2023/07/05 08:43:29;;;;;;;2.28;2.08;;;20.80;64.70;;;;;;4806306;29;20189;-85
2023/07/05 08:46:02;;;;;;;2.10;1.90;;;20.90;64.80;;;;;;4805103;29;20175;-85
2023/07/05 08:48:28;;;;;;;2.10;1.90;;;20.80;64.90;;;;;;4804858;29;20627;-85
2023/07/05 08:50:56;;;;;;;2.10;1.90;;;20.80;64.90;;;;;;4789552;29;20206;-86
2023/07/05 08:53:23;;;;;;;2.10;1.90;;;20.90;64.90;;;;;;4804650;29;20170;-85
2023/07/05 08:55:58;;;;;;;2.47;2.28;;;20.90;64.90;;;;;;4805893;29;20601;-84
2023/07/05 08:58:25;;;;;;;2.17;1.90;;;20.90;65.00;;;;;;4805065;29;20227;-84
2023/07/05 09:00:59;;;;;;;2.08;1.88;;;20.90;65.00;;;;;;4804872;29;20159;-85
2023/07/05 09:03:28;;;;;;;2.00;1.90;;;20.90;64.90;;;;;;4804877;29;20199;-86
2023/07/05 09:06:24;;;;;;;2.17;1.98;;;20.90;65.00;;;;;;4806114;29;20276;-84
2023/07/05 09:09:16;;;;;;;2.33;2.13;;;20.90;65.00;;;;;;4804785;29;20194;-85
2023/07/05 09:12:18;;;;;;;2.40;2.20;;;21.00;65.00;;;;;;4804764;29;20175;-84
2023/07/05 09:15:00;;;;;;;1.83;1.70;;;20.90;65.00;;;;;;4804958;29;20174;-84
2023/07/05 09:17:50;;;;;;;2.20;2.00;;;21.00;65.00;;;;;;4806147;29;20189;-86
2023/07/05 09:20:35;;;;;;;2.20;2.00;;;20.90;65.00;;;;;;4790462;29;20711;-85
2023/07/05 09:23:03;;;;;;;2.05;1.85;;;20.90;65.00;;;;;;4809183;29;20234;-84
2023/07/05 09:25:30;;;;;;;2.50;2.30;;;20.90;65.20;;;;;;4807842;29;20175;-85
2023/07/05 09:28:11;;;;;;;2.45;2.25;;;20.90;65.20;;;;;;4809046;29;20247;-84
2023/07/05 09:30:40;;;;;;;2.63;2.22;;;20.90;65.20;;;;;;4807916;29;20202;-84
2023/07/05 09:33:11;;;;;;;2.30;2.10;;;21.00;65.30;;;;;;4793082;29;20206;-84
2023/07/05 09:35:37;;;;;;;2.30;2.10;;;21.00;65.20;;;;;;4792613;29;20194;-84
2023/07/05 09:38:11;;;;;;;2.15;1.95;;;20.90;65.40;;;;;;4808781;29;20161;-83
2023/07/05 09:40:47;;;;;;;2.35;2.15;;;21.00;65.40;;;;;;4807587;29;20207;-84
2023/07/05 09:43:28;;;;;;;2.53;2.25;;;20.90;65.40;;;;;;4807766;29;20166;-83
2023/07/05 09:45:54;;;;;;;2.65;2.45;;;21.00;65.60;;;;;;4809204;29;20235;-85
2023/07/05 09:48:20;;;;;;;2.40;2.20;;;21.00;65.50;;;;;;4792535;29;20627;-85
2023/07/05 09:50:49;;;;;;;2.30;2.10;;;21.00;65.70;;;;;;4807468;29;20198;-84
2023/07/05 09:53:33;;;;;;;2.22;2.03;;;21.00;65.70;;;;;;4808556;29;20155;-85
2023/07/05 09:56:16;;;;;;;2.33;2.13;;;21.00;65.80;;;;;;4807327;29;20265;-84
2023/07/05 09:58:44;;;;;;;2.63;2.25;;;21.00;65.70;;;;;;4807516;29;20162;-84
2023/07/05 10:01:17;;;;;;;2.70;2.45;;;21.00;65.60;;;;;;4808506;29;20166;-85
2023/07/05 10:03:58;;;;;;;2.30;2.10;;;21.00;65.60;;;;;;4807381;29;20219;-85
2023/07/05 10:06:24;;;;;;;2.15;1.95;;;21.00;65.60;;;;;;4808276;29;20170;-84
2023/07/05 10:08:51;;;;;;;2.92;2.38;;;21.00;65.60;;;;;;4792225;29;20198;-84
2023/07/05 10:11:22;;;;;;;2.28;2.08;;;21.10;65.60;;;;;;4791971;29;20181;-85
2023/07/05 10:14:16;;;;;;;2.30;2.08;;;21.10;65.60;;;;;;4791915;29;20253;-85
2023/07/05 10:16:49;;;;;;;2.53;2.33;;;21.10;65.50;;;;;;4807385;29;20187;-84
2023/07/05 10:19:38;;;;;;;2.15;1.90;;;21.10;65.40;;;;;;4806984;29;20236;-85
2023/07/05 10:22:07;;;;;;;3.10;2.65;;;21.00;65.20;;;;;;4808402;29;20167;-85
2023/07/05 10:24:42;;;;;;;2.40;2.15;;;21.10;65.30;;;;;;4806907;29;20531;-84
2023/07/05 10:27:19;;;;;;;2.42;2.22;;;21.20;65.30;;;;;;4791647;29;20209;-84
2023/07/05 10:29:48;;;;;;;2.83;2.20;;;21.20;65.30;;;;;;4791578;29;20267;-84
2023/07/05 10:32:22;;;;;;;2.25;2.05;;;21.20;65.30;;;;;;4805810;29;20186;-85
2023/07/05 10:34:50;;;;;;;2.50;2.30;;;21.20;65.40;;;;;;4791723;29;20261;-85
2023/07/05 10:37:29;;;;;;;2.50;2.30;;;21.10;65.30;;;;;;4806673;29;20668;-85
2023/07/05 10:39:56;;;;;;;2.30;2.10;;;21.20;65.30;;;;;;4806745;29;20166;-85
2023/07/05 10:42:22;;;;;;;2.38;2.17;;;21.20;65.20;;;;;;4806821;29;20201;-85
2023/07/05 10:44:48;;;;;;;2.20;2.00;;;21.20;65.20;;;;;;4806795;29;20165;-86
2023/07/05 10:47:14;;;;;;;2.58;2.38;;;21.20;65.20;;;;;;4806427;29;20172;-85
2023/07/05 10:49:40;;;;;;;2.70;2.25;;;21.20;65.10;;;;;;4791455;29;20213;-86
2023/07/05 10:52:10;;;;;;;2.50;2.28;;;21.30;66.00;;;;;;4806402;29;20183;-85
2023/07/05 10:54:45;;;;;;;2.30;2.10;;;21.20;65.10;;;;;;4791618;29;20218;-86
2023/07/05 10:57:26;;;;;;;2.20;2.00;;;21.20;65.10;;;;;;4806511;29;20250;-86
2023/07/05 11:00:01;;;;;;;2.20;2.00;;;21.20;65.10;;;;;;4807573;29;20163;-86
2023/07/05 11:02:36;;;;;;;3.17;2.22;;;21.20;65.00;;;;;;4807619;29;20162;-86
2023/07/05 11:05:02;;;;;;;2.75;2.40;;;21.20;65.00;;;;;;4791086;29;20639;-86
2023/07/05 11:07:28;;;;;;;2.40;2.20;;;21.20;65.00;;;;;;4806239;29;20175;-86
2023/07/05 11:09:54;;;;;;;2.33;2.13;;;21.20;65.00;;;;;;4805964;29;20210;-85
2023/07/05 11:12:22;;;;;;;2.28;2.08;;;21.30;65.00;;;;;;4806028;29;20242;-86
2023/07/05 11:14:48;;;;;;;2.40;2.20;;;21.30;65.00;;;;;;4791486;29;20212;-85
2023/07/05 11:17:31;;;;;;;2.40;2.20;;;21.30;65.00;;;;;;4805965;29;20195;-86
2023/07/05 11:19:57;;;;;;;2.10;1.90;;;21.30;65.00;;;;;;4805885;29;20214;-86
2023/07/05 11:22:39;;;;;;;2.40;2.20;;;21.30;64.90;;;;;;4802776;29;20243;-86
2023/07/05 11:25:08;;;;;;;2.25;2.05;;;21.30;64.80;;;;;;4803432;29;20493;-86
2023/07/05 11:27:41;;;;;;;2.35;2.15;;;21.30;64.80;;;;;;4802865;29;20191;-85
2023/07/05 11:30:28;;;;;;;2.10;1.90;;;21.30;64.80;;;;;;4802634;29;20659;-85
2023/07/05 11:33:11;;;;;;;2.30;2.10;;;21.30;64.70;;;;;;4789139;29;20175;-85
2023/07/05 11:35:44;;;;;;;2.47;2.28;;;21.30;64.70;;;;;;4788845;29;20164;-85
2023/07/05 11:38:10;;;;;;;2.50;2.30;;;21.40;64.70;;;;;;4802479;29;20163;-85
2023/07/05 11:40:56;;;;;;;2.33;2.03;;;21.40;64.80;;;;;;4802872;29;20251;-85
2023/07/05 11:43:24;;;;;;;2.10;1.90;;;21.40;64.70;;;;;;4802728;29;20296;-84
2023/07/05 11:45:50;;;;;;;2.20;2.00;;;21.40;64.70;;;;;;4802677;29;20163;-85
2023/07/05 11:48:43;;;;;;;2.20;2.00;;;21.40;64.60;;;;;;4802370;29;20604;-85
2023/07/05 11:51:14;;;;;;;2.40;2.20;;;21.30;64.50;;;;;;4802624;29;20167;-85
2023/07/05 11:53:40;;;;;;;2.08;1.90;;;21.40;64.60;;;;;;4802307;29;20250;-85
2023/07/05 11:56:07;;;;;;;2.33;2.13;;;21.40;64.50;;;;;;4802176;29;20317;-84
2023/07/05 11:58:35;;;;;;;2.40;2.00;;;21.40;64.50;;;;;;4802092;29;20186;-85
2023/07/05 12:01:02;;;;;;;3.60;2.05;;;21.40;64.50;;;;;;4787511;30;20187;-85
2023/07/05 12:03:35;;;;;;;1.95;1.80;;;21.40;64.40;;;;;;4802363;29;20179;-85
2023/07/05 12:06:10;;;;;;;2.25;2.00;;;21.40;64.40;;;;;;4788672;29;20629;-85
2023/07/05 12:08:39;;;;;;;2.75;2.13;;;21.40;64.40;;;;;;4788618;29;20525;-85
2023/07/05 12:11:05;;;;;;;2.20;2.00;;;21.40;64.40;;;;;;4802152;29;20163;-84
2023/07/05 12:13:33;;;;;;;2.25;2.05;;;21.40;64.20;;;;;;4801995;29;20164;-85
2023/07/05 12:15:59;;;;;;;2.38;2.17;;;21.50;64.30;;;;;;4787779;30;20171;-85
2023/07/05 12:18:27;;;;;;;2.22;2.00;;;21.50;64.20;;;;;;4802021;29;20173;-85
2023/07/05 12:20:54;;;;;;;2.53;2.10;;;21.50;64.20;;;;;;4787295;30;20179;-84
2023/07/05 12:23:21;;;;;;;2.30;2.10;;;21.50;64.20;;;;;;4801521;29;20249;-85
2023/07/05 12:25:50;;;;;;;2.33;2.13;;;21.50;64.10;;;;;;4801691;29;20585;-85
2023/07/05 12:28:18;;;;;;;2.60;2.17;;;21.50;64.10;;;;;;4786974;30;20218;-85
2023/07/05 12:30:44;;;;;;;2.25;2.03;;;21.50;64.90;;;;;;4786929;30;20683;-85
2023/07/05 12:33:27;;;;;;;2.53;2.33;;;21.50;64.00;;;;;;4801855;29;20262;-87
2023/07/05 12:36:10;;;;;;;2.30;2.10;;;21.50;63.90;;;;;;4787234;30;20171;-85
2023/07/05 12:38:37;;;;;;;2.25;2.00;;;21.40;63.70;;;;;;4786639;30;20271;-85
2023/07/05 12:41:04;;;;;;;2.50;2.30;;;21.50;63.70;;;;;;4802093;29;20171;-85
2023/07/05 12:43:32;;;;;;;2.45;2.25;;;21.50;63.60;;;;;;4787800;29;20164;-85
2023/07/05 12:46:07;;;;;;;2.00;1.85;;;21.50;63.50;;;;;;4787004;30;20528;-85
2023/07/05 12:48:32;;;;;;;2.30;2.10;;;21.50;63.70;;;;;;4786628;30;20265;-85
2023/07/05 12:51:04;;;;;;;3.00;2.20;;;21.50;63.60;;;;;;4801575;29;20293;-85
2023/07/05 12:53:30;;;;;;;2.10;1.90;;;21.60;63.60;;;;;;4802027;29;20163;-86
2023/07/05 12:56:00;;;;;;;2.50;2.17;;;21.60;63.40;;;;;;4789023;29;20259;-86
2023/07/05 12:58:27;;;;;;;4.07;2.05;;;21.60;63.40;;;;;;4805238;29;20156;-86
2023/07/05 13:00:54;;;;;;;2.85;1.95;;;21.60;63.40;;;;;;4805169;29;20162;-85